sensor_id;sensor_type;location;lat;lon;timestamp;temperature;humidity
15328;DHT22;7764;51.430;6.840;2023-04-03T00:01:32;3.00;99.90
15328;DHT22;7764;51.430;6.840;2023-04-03T00:04:00;3.00;99.90
15328;DHT22;7764;51.430;6.840;2023-04-03T00:06:27;3.00;99.90
15328;DHT22;7764;51.430;6.840;2023-04-03T00:08:54;3.00;99.90
15328;DHT22;7764;51.430;6.840;2023-04-03T00:11:21;3.00;99.90
15328;DHT22;7764;51.430;6.840;2023-04-03T00:13:48;3.10;99.90
15328;DHT22;7764;51.430;6.840;2023-04-03T00:16:15;3.00;99.90
15328;DHT22;7764;51.430;6.840;2023-04-03T00:18:42;3.00;99.90
15328;DHT22;7764;51.430;6.840;2023-04-03T00:21:12;3.00;99.90
15328;DHT22;7764;51.430;6.840;2023-04-03T00:23:39;2.90;99.90
15328;DHT22;7764;51.430;6.840;2023-04-03T00:26:06;2.90;99.90
15328;DHT22;7764;51.430;6.840;2023-04-03T00:28:33;2.90;99.90
15328;DHT22;7764;51.430;6.840;2023-04-03T00:30:59;2.90;99.90
15328;DHT22;7764;51.430;6.840;2023-04-03T00:33:26;2.90;99.90
15328;DHT22;7764;51.430;6.840;2023-04-03T00:35:53;3.00;99.90
15328;DHT22;7764;51.430;6.840;2023-04-03T00:38:21;2.90;99.90
15328;DHT22;7764;51.430;6.840;2023-04-03T00:40:49;2.90;99.90
15328;DHT22;7764;51.430;6.840;2023-04-03T00:43:19;2.90;99.90
15328;DHT22;7764;51.430;6.840;2023-04-03T00:45:47;2.80;99.90
15328;DHT22;7764;51.430;6.840;2023-04-03T00:48:17;2.80;99.90
15328;DHT22;7764;51.430;6.840;2023-04-03T00:50:45;2.80;99.90
15328;DHT22;7764;51.430;6.840;2023-04-03T00:53:15;2.80;99.90
15328;DHT22;7764;51.430;6.840;2023-04-03T00:55:46;2.80;99.90
15328;DHT22;7764;51.430;6.840;2023-04-03T00:58:15;2.90;99.90
15328;DHT22;7764;51.430;6.840;2023-04-03T01:00:44;2.90;99.90
15328;DHT22;7764;51.430;6.840;2023-04-03T01:03:12;2.90;99.90
15328;DHT22;7764;51.430;6.840;2023-04-03T01:05:40;2.90;99.90
15328;DHT22;7764;51.430;6.840;2023-04-03T01:08:07;2.90;99.90
15328;DHT22;7764;51.430;6.840;2023-04-03T01:10:34;2.90;99.90
15328;DHT22;7764;51.430;6.840;2023-04-03T01:13:17;2.90;99.90
15328;DHT22;7764;51.430;6.840;2023-04-03T01:15:44;2.90;99.90
15328;DHT22;7764;51.430;6.840;2023-04-03T01:18:11;2.90;99.90
15328;DHT22;7764;51.430;6.840;2023-04-03T01:21:14;2.90;99.90
15328;DHT22;7764;51.430;6.840;2023-04-03T01:24:07;2.90;99.90
15328;DHT22;7764;51.430;6.840;2023-04-03T01:26:37;2.90;99.90
15328;DHT22;7764;51.430;6.840;2023-04-03T01:29:06;2.80;99.90
15328;DHT22;7764;51.430;6.840;2023-04-03T01:31:45;2.70;99.90
15328;DHT22;7764;51.430;6.840;2023-04-03T01:34:12;2.70;99.90
15328;DHT22;7764;51.430;6.840;2023-04-03T01:36:39;2.70;99.90
15328;DHT22;7764;51.430;6.840;2023-04-03T01:39:06;2.80;99.90
15328;DHT22;7764;51.430;6.840;2023-04-03T01:41:33;2.80;99.90
15328;DHT22;7764;51.430;6.840;2023-04-03T01:44:00;2.80;99.90
15328;DHT22;7764;51.430;6.840;2023-04-03T01:46:27;2.80;99.90
15328;DHT22;7764;51.430;6.840;2023-04-03T01:48:55;2.80;99.90
15328;DHT22;7764;51.430;6.840;2023-04-03T01:51:22;2.70;99.90
15328;DHT22;7764;51.430;6.840;2023-04-03T01:53:49;2.70;99.90
15328;DHT22;7764;51.430;6.840;2023-04-03T01:56:17;2.70;99.90
15328;DHT22;7764;51.430;6.840;2023-04-03T01:58:43;2.70;99.90
15328;DHT22;7764;51.430;6.840;2023-04-03T02:01:10;2.80;99.90
15328;DHT22;7764;51.430;6.840;2023-04-03T02:03:37;2.80;99.90
15328;DHT22;7764;51.430;6.840;2023-04-03T02:06:06;2.90;99.90
15328;DHT22;7764;51.430;6.840;2023-04-03T02:08:33;2.90;99.90
15328;DHT22;7764;51.430;6.840;2023-04-03T02:10:59;2.90;99.90
15328;DHT22;7764;51.430;6.840;2023-04-03T02:13:26;2.90;99.90
15328;DHT22;7764;51.430;6.840;2023-04-03T02:15:53;3.00;99.90
15328;DHT22;7764;51.430;6.840;2023-04-03T02:18:20;3.10;99.90
15328;DHT22;7764;51.430;6.840;2023-04-03T02:20:47;3.10;99.90
15328;DHT22;7764;51.430;6.840;2023-04-03T02:23:15;3.10;99.90
15328;DHT22;7764;51.430;6.840;2023-04-03T02:25:42;3.20;99.90
15328;DHT22;7764;51.430;6.840;2023-04-03T02:28:09;3.20;99.90
15328;DHT22;7764;51.430;6.840;2023-04-03T02:30:36;3.20;99.90
15328;DHT22;7764;51.430;6.840;2023-04-03T02:33:02;3.30;99.90
15328;DHT22;7764;51.430;6.840;2023-04-03T02:35:29;3.20;99.90
15328;DHT22;7764;51.430;6.840;2023-04-03T02:37:56;3.30;99.90
15328;DHT22;7764;51.430;6.840;2023-04-03T02:40:24;3.30;99.90
15328;DHT22;7764;51.430;6.840;2023-04-03T02:42:51;3.30;99.90
15328;DHT22;7764;51.430;6.840;2023-04-03T02:45:18;3.30;99.90
15328;DHT22;7764;51.430;6.840;2023-04-03T02:47:45;3.30;99.90
15328;DHT22;7764;51.430;6.840;2023-04-03T02:50:12;3.30;99.90
15328;DHT22;7764;51.430;6.840;2023-04-03T02:52:38;3.30;99.90
15328;DHT22;7764;51.430;6.840;2023-04-03T02:55:06;3.30;99.90
15328;DHT22;7764;51.430;6.840;2023-04-03T02:57:35;3.30;99.90
15328;DHT22;7764;51.430;6.840;2023-04-03T03:00:02;3.30;99.90
15328;DHT22;7764;51.430;6.840;2023-04-03T03:02:29;3.30;99.90
15328;DHT22;7764;51.430;6.840;2023-04-03T03:04:56;3.30;99.90
15328;DHT22;7764;51.430;6.840;2023-04-03T03:07:22;3.30;99.90
15328;DHT22;7764;51.430;6.840;2023-04-03T03:09:50;3.30;99.90
15328;DHT22;7764;51.430;6.840;2023-04-03T03:12:16;3.30;99.90
15328;DHT22;7764;51.430;6.840;2023-04-03T03:14:48;3.30;99.90
15328;DHT22;7764;51.430;6.840;2023-04-03T03:17:15;3.30;99.90
15328;DHT22;7764;51.430;6.840;2023-04-03T03:19:42;3.30;99.90
15328;DHT22;7764;51.430;6.840;2023-04-03T03:22:09;3.30;99.90
15328;DHT22;7764;51.430;6.840;2023-04-03T03:24:36;3.30;99.90
15328;DHT22;7764;51.430;6.840;2023-04-03T03:27:03;3.30;99.90
15328;DHT22;7764;51.430;6.840;2023-04-03T03:29:30;3.20;99.90
15328;DHT22;7764;51.430;6.840;2023-04-03T03:31:58;3.20;99.90
15328;DHT22;7764;51.430;6.840;2023-04-03T03:34:25;3.30;99.90
15328;DHT22;7764;51.430;6.840;2023-04-03T03:36:52;3.20;99.90
15328;DHT22;7764;51.430;6.840;2023-04-03T03:39:18;3.20;99.90
15328;DHT22;7764;51.430;6.840;2023-04-03T03:41:45;3.20;99.90
15328;DHT22;7764;51.430;6.840;2023-04-03T03:44:12;3.20;99.90
15328;DHT22;7764;51.430;6.840;2023-04-03T03:46:40;3.20;99.90
15328;DHT22;7764;51.430;6.840;2023-04-03T03:49:08;3.20;99.90
15328;DHT22;7764;51.430;6.840;2023-04-03T03:51:35;3.10;99.90
15328;DHT22;7764;51.430;6.840;2023-04-03T03:54:01;3.10;99.90
15328;DHT22;7764;51.430;6.840;2023-04-03T03:56:28;3.10;99.90
15328;DHT22;7764;51.430;6.840;2023-04-03T03:58:55;3.10;99.90
15328;DHT22;7764;51.430;6.840;2023-04-03T04:01:22;3.10;99.90
15328;DHT22;7764;51.430;6.840;2023-04-03T04:03:49;3.10;99.90
15328;DHT22;7764;51.430;6.840;2023-04-03T04:06:17;3.10;99.90
15328;DHT22;7764;51.430;6.840;2023-04-03T04:08:44;3.10;99.90
15328;DHT22;7764;51.430;6.840;2023-04-03T04:11:11;3.10;99.90
15328;DHT22;7764;51.430;6.840;2023-04-03T04:13:38;3.10;99.90
15328;DHT22;7764;51.430;6.840;2023-04-03T04:16:06;3.10;99.90
15328;DHT22;7764;51.430;6.840;2023-04-03T04:18:34;3.00;99.90
15328;DHT22;7764;51.430;6.840;2023-04-03T04:21:01;3.00;99.90
15328;DHT22;7764;51.430;6.840;2023-04-03T04:23:29;3.00;99.90
15328;DHT22;7764;51.430;6.840;2023-04-03T04:25:56;3.00;99.90
15328;DHT22;7764;51.430;6.840;2023-04-03T04:28:23;3.00;99.90
15328;DHT22;7764;51.430;6.840;2023-04-03T04:30:49;2.90;99.90
15328;DHT22;7764;51.430;6.840;2023-04-03T04:33:16;2.90;99.90
15328;DHT22;7764;51.430;6.840;2023-04-03T04:35:43;2.90;99.90
15328;DHT22;7764;51.430;6.840;2023-04-03T04:38:10;2.90;99.90
15328;DHT22;7764;51.430;6.840;2023-04-03T04:40:38;2.90;99.90
15328;DHT22;7764;51.430;6.840;2023-04-03T04:43:05;2.80;99.90
15328;DHT22;7764;51.430;6.840;2023-04-03T04:45:32;2.90;99.90
15328;DHT22;7764;51.430;6.840;2023-04-03T04:48:00;2.80;99.90
15328;DHT22;7764;51.430;6.840;2023-04-03T04:50:26;2.80;99.90
15328;DHT22;7764;51.430;6.840;2023-04-03T04:52:53;2.90;99.90
15328;DHT22;7764;51.430;6.840;2023-04-03T04:55:20;2.80;99.90
15328;DHT22;7764;51.430;6.840;2023-04-03T04:57:48;2.80;99.90
15328;DHT22;7764;51.430;6.840;2023-04-03T05:00:16;2.80;99.90
15328;DHT22;7764;51.430;6.840;2023-04-03T05:02:43;2.80;99.90
15328;DHT22;7764;51.430;6.840;2023-04-03T05:05:10;2.80;99.90
15328;DHT22;7764;51.430;6.840;2023-04-03T05:07:36;2.80;99.90
15328;DHT22;7764;51.430;6.840;2023-04-03T05:10:04;2.80;99.90
15328;DHT22;7764;51.430;6.840;2023-04-03T05:12:32;2.80;99.90
15328;DHT22;7764;51.430;6.840;2023-04-03T05:15:00;2.80;99.90
15328;DHT22;7764;51.430;6.840;2023-04-03T05:17:27;2.90;99.90
15328;DHT22;7764;51.430;6.840;2023-04-03T05:19:53;2.80;99.90
15328;DHT22;7764;51.430;6.840;2023-04-03T05:22:20;2.80;99.90
15328;DHT22;7764;51.430;6.840;2023-04-03T05:24:48;2.80;99.90
15328;DHT22;7764;51.430;6.840;2023-04-03T05:27:15;2.90;99.90
15328;DHT22;7764;51.430;6.840;2023-04-03T05:29:42;2.90;99.90
15328;DHT22;7764;51.430;6.840;2023-04-03T05:32:10;2.90;99.90
15328;DHT22;7764;51.430;6.840;2023-04-03T05:34:37;2.90;99.90
15328;DHT22;7764;51.430;6.840;2023-04-03T05:37:04;2.90;99.90
15328;DHT22;7764;51.430;6.840;2023-04-03T05:39:31;2.90;99.90
15328;DHT22;7764;51.430;6.840;2023-04-03T05:41:58;2.90;99.90
15328;DHT22;7764;51.430;6.840;2023-04-03T05:44:25;2.90;99.90
15328;DHT22;7764;51.430;6.840;2023-04-03T05:46:52;3.00;99.90
15328;DHT22;7764;51.430;6.840;2023-04-03T05:49:20;3.00;99.90
15328;DHT22;7764;51.430;6.840;2023-04-03T05:51:47;3.10;99.90
15328;DHT22;7764;51.430;6.840;2023-04-03T05:54:17;3.10;99.90
15328;DHT22;7764;51.430;6.840;2023-04-03T05:56:45;3.20;99.90
15328;DHT22;7764;51.430;6.840;2023-04-03T05:59:11;3.40;99.90
15328;DHT22;7764;51.430;6.840;2023-04-03T06:01:38;3.70;99.90
15328;DHT22;7764;51.430;6.840;2023-04-03T06:04:06;4.20;99.90
15328;DHT22;7764;51.430;6.840;2023-04-03T06:06:46;4.50;99.90
15328;DHT22;7764;51.430;6.840;2023-04-03T06:09:15;4.70;99.90
15328;DHT22;7764;51.430;6.840;2023-04-03T06:11:42;5.00;99.90
15328;DHT22;7764;51.430;6.840;2023-04-03T06:14:10;5.40;99.90
15328;DHT22;7764;51.430;6.840;2023-04-03T06:16:37;5.50;99.90
15328;DHT22;7764;51.430;6.840;2023-04-03T06:19:04;5.40;99.90
15328;DHT22;7764;51.430;6.840;2023-04-03T06:21:32;5.50;99.90
15328;DHT22;7764;51.430;6.840;2023-04-03T06:24:00;5.60;99.90
15328;DHT22;7764;51.430;6.840;2023-04-03T06:26:27;5.90;99.90
15328;DHT22;7764;51.430;6.840;2023-04-03T06:28:54;5.90;99.90
15328;DHT22;7764;51.430;6.840;2023-04-03T06:31:21;5.90;99.90
15328;DHT22;7764;51.430;6.840;2023-04-03T06:33:48;6.00;99.90
15328;DHT22;7764;51.430;6.840;2023-04-03T06:36:18;6.00;99.90
15328;DHT22;7764;51.430;6.840;2023-04-03T06:38:46;6.10;99.90
15328;DHT22;7764;51.430;6.840;2023-04-03T06:41:15;6.40;99.90
15328;DHT22;7764;51.430;6.840;2023-04-03T06:43:42;6.70;99.90
15328;DHT22;7764;51.430;6.840;2023-04-03T06:46:13;6.90;99.90
15328;DHT22;7764;51.430;6.840;2023-04-03T06:48:42;6.90;99.90
15328;DHT22;7764;51.430;6.840;2023-04-03T06:51:17;6.90;99.90
15328;DHT22;7764;51.430;6.840;2023-04-03T06:53:45;7.00;99.90
15328;DHT22;7764;51.430;6.840;2023-04-03T06:56:12;6.80;99.90
15328;DHT22;7764;51.430;6.840;2023-04-03T06:58:41;6.90;99.90
15328;DHT22;7764;51.430;6.840;2023-04-03T07:01:08;7.00;99.90
15328;DHT22;7764;51.430;6.840;2023-04-03T07:03:36;7.20;99.90
15328;DHT22;7764;51.430;6.840;2023-04-03T07:06:03;7.50;99.90
15328;DHT22;7764;51.430;6.840;2023-04-03T07:08:31;7.60;99.90
15328;DHT22;7764;51.430;6.840;2023-04-03T07:10:58;7.50;99.90
15328;DHT22;7764;51.430;6.840;2023-04-03T07:13:25;7.60;99.90
15328;DHT22;7764;51.430;6.840;2023-04-03T07:15:53;7.70;99.90
15328;DHT22;7764;51.430;6.840;2023-04-03T07:18:20;7.60;99.90
15328;DHT22;7764;51.430;6.840;2023-04-03T07:20:48;7.60;99.90
15328;DHT22;7764;51.430;6.840;2023-04-03T07:23:15;7.50;99.90
15328;DHT22;7764;51.430;6.840;2023-04-03T07:25:43;7.60;99.90
15328;DHT22;7764;51.430;6.840;2023-04-03T07:28:10;7.60;99.90
15328;DHT22;7764;51.430;6.840;2023-04-03T07:30:43;7.50;99.90
15328;DHT22;7764;51.430;6.840;2023-04-03T07:33:12;7.70;99.90
15328;DHT22;7764;51.430;6.840;2023-04-03T07:35:40;7.80;99.90
15328;DHT22;7764;51.430;6.840;2023-04-03T07:38:07;7.70;99.90
15328;DHT22;7764;51.430;6.840;2023-04-03T07:40:34;7.50;99.90
15328;DHT22;7764;51.430;6.840;2023-04-03T07:43:01;7.70;99.90
15328;DHT22;7764;51.430;6.840;2023-04-03T07:45:28;7.90;99.90
15328;DHT22;7764;51.430;6.840;2023-04-03T07:47:55;7.50;99.90
15328;DHT22;7764;51.430;6.840;2023-04-03T07:50:23;7.40;99.90
15328;DHT22;7764;51.430;6.840;2023-04-03T07:52:50;7.40;99.90
15328;DHT22;7764;51.430;6.840;2023-04-03T07:55:19;7.50;99.90
15328;DHT22;7764;51.430;6.840;2023-04-03T07:57:46;7.50;99.90
15328;DHT22;7764;51.430;6.840;2023-04-03T08:00:14;7.50;99.90
15328;DHT22;7764;51.430;6.840;2023-04-03T08:02:43;7.30;99.90
15328;DHT22;7764;51.430;6.840;2023-04-03T08:05:15;7.50;99.90
15328;DHT22;7764;51.430;6.840;2023-04-03T08:07:44;7.80;99.90
15328;DHT22;7764;51.430;6.840;2023-04-03T08:10:11;7.70;99.90
15328;DHT22;7764;51.430;6.840;2023-04-03T08:12:38;7.70;99.90
15328;DHT22;7764;51.430;6.840;2023-04-03T08:15:06;7.60;99.90
15328;DHT22;7764;51.430;6.840;2023-04-03T08:17:33;7.50;99.90
15328;DHT22;7764;51.430;6.840;2023-04-03T08:20:01;7.20;99.90
15328;DHT22;7764;51.430;6.840;2023-04-03T08:22:28;7.10;99.90
15328;DHT22;7764;51.430;6.840;2023-04-03T08:24:56;7.00;99.90
15328;DHT22;7764;51.430;6.840;2023-04-03T08:27:23;6.90;99.90
15328;DHT22;7764;51.430;6.840;2023-04-03T08:29:50;6.90;99.90
15328;DHT22;7764;51.430;6.840;2023-04-03T08:32:17;7.00;99.90
15328;DHT22;7764;51.430;6.840;2023-04-03T08:34:44;7.10;99.90
15328;DHT22;7764;51.430;6.840;2023-04-03T08:37:11;7.00;99.50
15328;DHT22;7764;51.430;6.840;2023-04-03T08:39:38;7.10;99.90
15328;DHT22;7764;51.430;6.840;2023-04-03T08:42:15;7.10;97.00
15328;DHT22;7764;51.430;6.840;2023-04-03T08:44:46;7.20;98.10
15328;DHT22;7764;51.430;6.840;2023-04-03T08:47:22;7.20;97.70
15328;DHT22;7764;51.430;6.840;2023-04-03T08:49:52;7.20;96.80
15328;DHT22;7764;51.430;6.840;2023-04-03T08:52:24;7.30;96.90
15328;DHT22;7764;51.430;6.840;2023-04-03T08:54:56;7.20;98.20
15328;DHT22;7764;51.430;6.840;2023-04-03T08:57:29;7.00;96.40
15328;DHT22;7764;51.430;6.840;2023-04-03T08:59:59;7.20;96.60
15328;DHT22;7764;51.430;6.840;2023-04-03T09:02:31;7.40;95.40
15328;DHT22;7764;51.430;6.840;2023-04-03T09:04:59;7.50;94.00
15328;DHT22;7764;51.430;6.840;2023-04-03T09:07:35;7.40;91.50
15328;DHT22;7764;51.430;6.840;2023-04-03T09:10:04;7.50;89.40
15328;DHT22;7764;51.430;6.840;2023-04-03T09:12:37;7.50;87.80
15328;DHT22;7764;51.430;6.840;2023-04-03T09:15:13;7.40;89.40
15328;DHT22;7764;51.430;6.840;2023-04-03T09:17:46;7.60;88.40
15328;DHT22;7764;51.430;6.840;2023-04-03T09:20:22;7.50;87.40
15328;DHT22;7764;51.430;6.840;2023-04-03T09:22:51;7.50;86.90
15328;DHT22;7764;51.430;6.840;2023-04-03T09:25:22;7.70;82.50
15328;DHT22;7764;51.430;6.840;2023-04-03T09:27:51;7.50;77.00
15328;DHT22;7764;51.430;6.840;2023-04-03T09:30:19;7.50;77.80
15328;DHT22;7764;51.430;6.840;2023-04-03T09:32:49;7.50;77.70
15328;DHT22;7764;51.430;6.840;2023-04-03T09:35:20;7.60;79.50
15328;DHT22;7764;51.430;6.840;2023-04-03T09:37:49;7.60;77.00
15328;DHT22;7764;51.430;6.840;2023-04-03T09:40:34;7.60;76.90
15328;DHT22;7764;51.430;6.840;2023-04-03T09:43:27;7.70;76.50
15328;DHT22;7764;51.430;6.840;2023-04-03T09:45:56;7.80;78.40
15328;DHT22;7764;51.430;6.840;2023-04-03T09:48:24;7.90;77.00
15328;DHT22;7764;51.430;6.840;2023-04-03T09:50:56;8.10;76.20
15328;DHT22;7764;51.430;6.840;2023-04-03T09:53:33;7.90;73.50
15328;DHT22;7764;51.430;6.840;2023-04-03T09:56:04;7.90;70.40
15328;DHT22;7764;51.430;6.840;2023-04-03T09:58:35;7.90;71.60
15328;DHT22;7764;51.430;6.840;2023-04-03T10:01:04;7.90;68.40
15328;DHT22;7764;51.430;6.840;2023-04-03T10:03:33;8.10;68.30
15328;DHT22;7764;51.430;6.840;2023-04-03T10:06:02;8.10;68.10
15328;DHT22;7764;51.430;6.840;2023-04-03T10:08:31;8.10;68.50
15328;DHT22;7764;51.430;6.840;2023-04-03T10:11:12;8.10;68.90
15328;DHT22;7764;51.430;6.840;2023-04-03T10:13:55;8.10;67.70
15328;DHT22;7764;51.430;6.840;2023-04-03T10:16:27;8.00;63.90
15328;DHT22;7764;51.430;6.840;2023-04-03T10:21:50;8.20;64.70
15328;DHT22;7764;51.430;6.840;2023-04-03T10:24:23;8.10;64.70
15328;DHT22;7764;51.430;6.840;2023-04-03T10:26:57;8.40;65.30
15328;DHT22;7764;51.430;6.840;2023-04-03T10:29:38;8.30;65.60
15328;DHT22;7764;51.430;6.840;2023-04-03T10:32:33;8.50;66.90
15328;DHT22;7764;51.430;6.840;2023-04-03T10:35:11;8.60;66.30
15328;DHT22;7764;51.430;6.840;2023-04-03T10:37:54;8.50;66.00
15328;DHT22;7764;51.430;6.840;2023-04-03T10:40:30;8.60;67.00
15328;DHT22;7764;51.430;6.840;2023-04-03T10:43:02;8.70;67.10
15328;DHT22;7764;51.430;6.840;2023-04-03T10:45:47;8.60;66.90
15328;DHT22;7764;51.430;6.840;2023-04-03T10:48:26;8.60;67.10
15328;DHT22;7764;51.430;6.840;2023-04-03T10:51:00;8.70;69.90
15328;DHT22;7764;51.430;6.840;2023-04-03T10:53:33;8.80;68.50
15328;DHT22;7764;51.430;6.840;2023-04-03T10:56:07;8.60;66.20
15328;DHT22;7764;51.430;6.840;2023-04-03T10:58:41;8.90;68.10
15328;DHT22;7764;51.430;6.840;2023-04-03T11:01:14;9.00;67.80
15328;DHT22;7764;51.430;6.840;2023-04-03T11:03:45;8.90;67.40
15328;DHT22;7764;51.430;6.840;2023-04-03T11:06:15;8.70;67.20
15328;DHT22;7764;51.430;6.840;2023-04-03T11:08:46;8.70;69.50
15328;DHT22;7764;51.430;6.840;2023-04-03T11:11:17;8.80;70.40
15328;DHT22;7764;51.430;6.840;2023-04-03T11:13:50;8.70;68.90
15328;DHT22;7764;51.430;6.840;2023-04-03T11:16:24;8.70;69.50
15328;DHT22;7764;51.430;6.840;2023-04-03T11:18:54;8.60;70.00
15328;DHT22;7764;51.430;6.840;2023-04-03T11:21:26;8.50;70.80
15328;DHT22;7764;51.430;6.840;2023-04-03T11:23:56;8.70;73.40
15328;DHT22;7764;51.430;6.840;2023-04-03T11:26:27;8.80;74.70
15328;DHT22;7764;51.430;6.840;2023-04-03T11:28:59;8.90;72.80
15328;DHT22;7764;51.430;6.840;2023-04-03T11:31:38;9.00;73.00
15328;DHT22;7764;51.430;6.840;2023-04-03T11:34:21;9.00;72.90
15328;DHT22;7764;51.430;6.840;2023-04-03T11:36:55;8.90;71.40
15328;DHT22;7764;51.430;6.840;2023-04-03T11:39:25;8.80;72.70
15328;DHT22;7764;51.430;6.840;2023-04-03T11:41:53;8.90;73.70
15328;DHT22;7764;51.430;6.840;2023-04-03T11:44:34;8.90;73.20
15328;DHT22;7764;51.430;6.840;2023-04-03T11:47:09;8.90;72.60
15328;DHT22;7764;51.430;6.840;2023-04-03T11:49:58;8.80;72.40
15328;DHT22;7764;51.430;6.840;2023-04-03T11:52:56;8.90;71.50
15328;DHT22;7764;51.430;6.840;2023-04-03T11:55:53;9.10;71.30
15328;DHT22;7764;51.430;6.840;2023-04-03T11:58:21;9.10;71.60
15328;DHT22;7764;51.430;6.840;2023-04-03T12:00:57;9.30;71.80
15328;DHT22;7764;51.430;6.840;2023-04-03T12:12:33;9.20;70.90
15328;DHT22;7764;51.430;6.840;2023-04-03T12:15:23;8.90;69.10
15328;DHT22;7764;51.430;6.840;2023-04-03T12:17:51;9.00;69.90
15328;DHT22;7764;51.430;6.840;2023-04-03T12:23:33;9.20;70.00
15328;DHT22;7764;51.430;6.840;2023-04-03T12:28:53;9.20;66.00
15328;DHT22;7764;51.430;6.840;2023-04-03T12:31:24;9.40;67.20
15328;DHT22;7764;51.430;6.840;2023-04-03T12:34:06;9.40;65.90
15328;DHT22;7764;51.430;6.840;2023-04-03T12:36:45;9.30;68.30
15328;DHT22;7764;51.430;6.840;2023-04-03T12:39:39;9.40;69.30
15328;DHT22;7764;51.430;6.840;2023-04-03T12:42:18;9.30;67.70
15328;DHT22;7764;51.430;6.840;2023-04-03T12:44:56;9.20;67.40
15328;DHT22;7764;51.430;6.840;2023-04-03T12:47:29;9.30;68.30
15328;DHT22;7764;51.430;6.840;2023-04-03T12:49:59;9.20;68.60
15328;DHT22;7764;51.430;6.840;2023-04-03T12:52:37;9.10;68.50
15328;DHT22;7764;51.430;6.840;2023-04-03T12:55:14;9.10;68.20
15328;DHT22;7764;51.430;6.840;2023-04-03T12:57:41;9.20;68.10
15328;DHT22;7764;51.430;6.840;2023-04-03T13:00:28;9.30;67.90
15328;DHT22;7764;51.430;6.840;2023-04-03T13:02:55;9.10;68.40
15328;DHT22;7764;51.430;6.840;2023-04-03T13:05:23;9.20;68.30
15328;DHT22;7764;51.430;6.840;2023-04-03T13:07:53;9.10;67.30
15328;DHT22;7764;51.430;6.840;2023-04-03T13:10:23;9.30;68.30
15328;DHT22;7764;51.430;6.840;2023-04-03T13:12:53;9.40;67.30
15328;DHT22;7764;51.430;6.840;2023-04-03T13:15:22;9.40;67.20
15328;DHT22;7764;51.430;6.840;2023-04-03T13:17:50;9.50;68.00
15328;DHT22;7764;51.430;6.840;2023-04-03T13:20:21;9.50;66.90
15328;DHT22;7764;51.430;6.840;2023-04-03T13:22:52;9.60;67.00
15328;DHT22;7764;51.430;6.840;2023-04-03T13:25:23;9.60;66.90
15328;DHT22;7764;51.430;6.840;2023-04-03T13:27:51;9.60;65.90
15328;DHT22;7764;51.430;6.840;2023-04-03T13:30:24;9.60;65.30
15328;DHT22;7764;51.430;6.840;2023-04-03T13:32:52;9.40;64.80
15328;DHT22;7764;51.430;6.840;2023-04-03T13:35:35;9.40;65.30
15328;DHT22;7764;51.430;6.840;2023-04-03T13:38:06;9.40;66.10
15328;DHT22;7764;51.430;6.840;2023-04-03T13:40:47;9.40;66.50
15328;DHT22;7764;51.430;6.840;2023-04-03T13:43:20;9.30;66.50
15328;DHT22;7764;51.430;6.840;2023-04-03T13:46:00;9.30;66.40
15328;DHT22;7764;51.430;6.840;2023-04-03T13:48:35;9.60;66.60
15328;DHT22;7764;51.430;6.840;2023-04-03T13:51:04;9.60;66.10
15328;DHT22;7764;51.430;6.840;2023-04-03T13:53:33;9.40;66.50
15328;DHT22;7764;51.430;6.840;2023-04-03T13:56:08;9.50;67.70
15328;DHT22;7764;51.430;6.840;2023-04-03T13:58:36;9.70;67.10
15328;DHT22;7764;51.430;6.840;2023-04-03T14:01:11;9.50;65.00
15328;DHT22;7764;51.430;6.840;2023-04-03T14:03:42;9.50;67.60
15328;DHT22;7764;51.430;6.840;2023-04-03T14:06:12;9.40;65.60
15328;DHT22;7764;51.430;6.840;2023-04-03T14:08:40;9.50;66.20
15328;DHT22;7764;51.430;6.840;2023-04-03T14:11:13;9.50;66.60
15328;DHT22;7764;51.430;6.840;2023-04-03T14:13:41;9.50;66.80
15328;DHT22;7764;51.430;6.840;2023-04-03T14:16:11;9.60;67.30
15328;DHT22;7764;51.430;6.840;2023-04-03T14:18:38;9.70;67.60
15328;DHT22;7764;51.430;6.840;2023-04-03T14:21:05;9.70;68.00
15328;DHT22;7764;51.430;6.840;2023-04-03T14:23:32;9.70;67.00
15328;DHT22;7764;51.430;6.840;2023-04-03T14:26:00;9.60;65.60
15328;DHT22;7764;51.430;6.840;2023-04-03T14:28:28;9.50;65.30
15328;DHT22;7764;51.430;6.840;2023-04-03T14:30:56;9.50;66.80
15328;DHT22;7764;51.430;6.840;2023-04-03T14:33:23;9.60;67.60
15328;DHT22;7764;51.430;6.840;2023-04-03T14:35:51;9.60;68.30
15328;DHT22;7764;51.430;6.840;2023-04-03T14:38:24;9.60;66.80
15328;DHT22;7764;51.430;6.840;2023-04-03T14:40:51;9.60;68.60
15328;DHT22;7764;51.430;6.840;2023-04-03T14:43:18;9.60;67.60
15328;DHT22;7764;51.430;6.840;2023-04-03T14:45:47;9.60;68.00
15328;DHT22;7764;51.430;6.840;2023-04-03T14:48:18;9.70;68.40
15328;DHT22;7764;51.430;6.840;2023-04-03T14:50:46;9.50;68.90
15328;DHT22;7764;51.430;6.840;2023-04-03T14:53:14;9.50;69.20
15328;DHT22;7764;51.430;6.840;2023-04-03T14:55:43;9.40;69.50
15328;DHT22;7764;51.430;6.840;2023-04-03T14:58:13;9.50;70.20
15328;DHT22;7764;51.430;6.840;2023-04-03T15:00:40;9.50;70.00
15328;DHT22;7764;51.430;6.840;2023-04-03T15:03:13;9.60;69.40
15328;DHT22;7764;51.430;6.840;2023-04-03T15:05:41;9.70;70.10
15328;DHT22;7764;51.430;6.840;2023-04-03T15:08:16;9.70;70.30
15328;DHT22;7764;51.430;6.840;2023-04-03T15:10:43;9.60;69.00
15328;DHT22;7764;51.430;6.840;2023-04-03T15:13:12;9.40;69.10
15328;DHT22;7764;51.430;6.840;2023-04-03T15:15:39;9.30;69.00
15328;DHT22;7764;51.430;6.840;2023-04-03T15:18:06;9.40;69.90
15328;DHT22;7764;51.430;6.840;2023-04-03T15:20:37;9.40;69.00
15328;DHT22;7764;51.430;6.840;2023-04-03T15:23:04;9.40;69.50
15328;DHT22;7764;51.430;6.840;2023-04-03T15:25:31;9.40;69.80
15328;DHT22;7764;51.430;6.840;2023-04-03T15:27:59;9.30;68.70
15328;DHT22;7764;51.430;6.840;2023-04-03T15:30:26;9.40;69.80
15328;DHT22;7764;51.430;6.840;2023-04-03T15:32:53;9.50;70.50
15328;DHT22;7764;51.430;6.840;2023-04-03T15:35:20;9.50;70.30
15328;DHT22;7764;51.430;6.840;2023-04-03T15:37:48;9.50;70.60
15328;DHT22;7764;51.430;6.840;2023-04-03T15:40:16;9.50;70.80
15328;DHT22;7764;51.430;6.840;2023-04-03T15:42:43;9.50;70.10
15328;DHT22;7764;51.430;6.840;2023-04-03T15:45:10;9.40;69.70
15328;DHT22;7764;51.430;6.840;2023-04-03T15:47:37;9.30;70.00
15328;DHT22;7764;51.430;6.840;2023-04-03T15:50:05;9.20;69.80
15328;DHT22;7764;51.430;6.840;2023-04-03T15:52:33;9.30;70.80
15328;DHT22;7764;51.430;6.840;2023-04-03T15:55:01;9.30;71.10
15328;DHT22;7764;51.430;6.840;2023-04-03T15:57:28;9.30;71.20
15328;DHT22;7764;51.430;6.840;2023-04-03T15:59:55;9.30;70.60
15328;DHT22;7764;51.430;6.840;2023-04-03T16:02:23;9.30;71.60
15328;DHT22;7764;51.430;6.840;2023-04-03T16:04:53;9.20;71.80
15328;DHT22;7764;51.430;6.840;2023-04-03T16:07:20;9.20;73.40
15328;DHT22;7764;51.430;6.840;2023-04-03T16:09:47;9.30;73.00
15328;DHT22;7764;51.430;6.840;2023-04-03T16:12:15;9.20;72.70
15328;DHT22;7764;51.430;6.840;2023-04-03T16:14:42;9.20;72.50
15328;DHT22;7764;51.430;6.840;2023-04-03T16:17:09;9.20;72.20
15328;DHT22;7764;51.430;6.840;2023-04-03T16:19:36;9.10;71.80
15328;DHT22;7764;51.430;6.840;2023-04-03T16:22:04;9.20;72.80
15328;DHT22;7764;51.430;6.840;2023-04-03T16:24:30;9.10;72.70
15328;DHT22;7764;51.430;6.840;2023-04-03T16:26:57;9.10;71.90
15328;DHT22;7764;51.430;6.840;2023-04-03T16:29:26;9.00;70.90
15328;DHT22;7764;51.430;6.840;2023-04-03T16:31:53;8.90;70.90
15328;DHT22;7764;51.430;6.840;2023-04-03T16:34:20;8.90;71.10
15328;DHT22;7764;51.430;6.840;2023-04-03T16:36:46;8.90;72.20